Time;durP1;ratioP1;P1;durP2;ratioP2;P2;SDS_P1;SDS_P2;PMS_P1;PMS_P2;Temp;Humidity;BMP_temperature;BMP_pressure;BME280_temperature;BME280_humidity;BME280_pressure;Samples;Min_cycle;Max_cycle;Signal;HPM_P1;HPM_P2
2023/02/27 00:00:48;;;;;;;7.18;1.60;;;;;;;-0.89;100.00;102783.91;5208483;28;20037;-74
2023/02/27 00:03:19;;;;;;;5.35;1.52;;;;;;;-0.91;100.00;102777.81;5221978;28;20032;-74
2023/02/27 00:05:49;;;;;;;7.80;2.00;;;;;;;-0.93;100.00;102786.69;5217045;28;20025;-74
2023/02/27 00:08:20;;;;;;;18.45;3.10;;;;;;;-0.96;100.00;102784.97;5226338;28;20462;-74
2023/02/27 00:10:50;;;;;;;13.13;1.80;;;;;;;-0.97;100.00;102790.31;5226048;28;20024;-74
2023/02/27 00:13:21;;;;;;;3.75;1.40;;;;;;;-1.00;100.00;102787.75;5226471;28;20021;-74
2023/02/27 00:15:52;;;;;;;3.78;1.40;;;;;;;-1.03;100.00;102786.09;5208448;28;20462;-75
2023/02/27 00:18:22;;;;;;;5.53;1.70;;;;;;;-1.07;100.00;102776.53;5226200;28;20512;-74
2023/02/27 00:20:56;;;;;;;16.92;2.00;;;;;;;-1.09;100.00;102779.22;5225650;28;20059;-74
2023/02/27 00:23:27;;;;;;;5.22;1.60;;;;;;;-1.08;100.00;102774.81;5225918;28;20514;-74
2023/02/27 00:25:59;;;;;;;10.68;2.20;;;;;;;-1.08;100.00;102769.56;5208100;28;20420;-74
2023/02/27 00:28:30;;;;;;;4.32;1.98;;;;;;;-1.10;100.00;102761.69;5208120;28;20025;-74
2023/02/27 00:31:00;;;;;;;7.22;1.73;;;;;;;-1.11;100.00;102765.22;5226130;28;20109;-74
2023/02/27 00:33:31;;;;;;;9.90;1.98;;;;;;;-1.13;100.00;102759.16;5226095;28;20075;-74
2023/02/27 00:36:02;;;;;;;7.13;2.05;;;;;;;-1.16;100.00;102766.25;5225711;28;20040;-74
2023/02/27 00:38:32;;;;;;;5.22;1.65;;;;;;;-1.20;100.00;102781.31;5225721;28;20063;-74
2023/02/27 00:41:06;;;;;;;4.07;1.52;;;;;;;-1.23;100.00;102777.88;5226126;28;20428;-74
2023/02/27 00:43:36;;;;;;;4.22;1.92;;;;;;;-1.24;100.00;102782.28;5226042;28;20056;-74
2023/02/27 00:46:07;;;;;;;5.07;1.73;;;;;;;-1.24;100.00;102776.16;5208096;28;20064;-74
2023/02/27 00:48:37;;;;;;;7.85;1.80;;;;;;;-1.27;100.00;102779.75;5225122;28;20033;-74
2023/02/27 00:51:08;;;;;;;6.57;1.77;;;;;;;-1.27;100.00;102786.78;5225686;28;20123;-74
2023/02/27 00:53:38;;;;;;;4.07;1.30;;;;;;;-1.29;100.00;102785.97;5225914;28;20024;-74
2023/02/27 00:56:09;;;;;;;5.65;1.83;;;;;;;-1.33;100.00;102786.03;5225615;28;20470;-74
2023/02/27 00:58:39;;;;;;;7.97;1.90;;;;;;;-1.37;100.00;102783.53;5207239;28;20024;-74
2023/02/27 01:01:10;;;;;;;6.10;1.33;;;;;;;-1.40;100.00;102781.88;5225057;28;20102;-73
2023/02/27 01:03:40;;;;;;;12.20;2.15;;;;;;;-1.42;100.00;102782.78;5207989;28;20025;-74
2023/02/27 01:06:11;;;;;;;9.20;1.60;;;;;;;-1.46;100.00;102778.50;5225316;28;20021;-74
2023/02/27 01:08:41;;;;;;;6.65;1.60;;;;;;;-1.52;100.00;102782.19;5225202;28;20025;-74
2023/02/27 01:11:12;;;;;;;6.28;1.73;;;;;;;-1.57;100.00;102782.31;5225223;28;20035;-74
2023/02/27 01:13:44;;;;;;;7.80;2.10;;;;;;;-1.60;100.00;102781.53;5225228;28;20028;-74
2023/02/27 01:16:15;;;;;;;2.85;1.40;;;;;;;-1.64;100.00;102769.38;5225133;28;20090;-74
2023/02/27 01:18:46;;;;;;;6.65;2.03;;;;;;;-1.65;100.00;102781.66;5225546;28;20020;-74
2023/02/27 01:21:16;;;;;;;5.65;1.58;;;;;;;-1.66;100.00;102776.41;5227354;28;20033;-73
2023/02/27 01:23:47;;;;;;;7.82;1.88;;;;;;;-1.68;100.00;102773.84;5227118;28;20063;-74
2023/02/27 01:26:18;;;;;;;11.77;2.22;;;;;;;-1.68;100.00;102767.72;5226174;28;20044;-74
2023/02/27 01:28:49;;;;;;;7.10;1.63;;;;;;;-1.70;100.00;102765.13;5207412;28;20025;-74
2023/02/27 01:31:19;;;;;;;8.40;2.22;;;;;;;-1.72;100.00;102766.91;5206890;28;20082;-74
2023/02/27 01:33:50;;;;;;;11.70;2.15;;;;;;;-1.73;100.00;102764.34;5225023;28;20129;-74
2023/02/27 01:36:20;;;;;;;8.60;1.63;;;;;;;-1.74;100.00;102762.63;5224600;28;20111;-74
2023/02/27 01:38:51;;;;;;;8.20;2.20;;;;;;;-1.76;100.00;102759.13;5207582;28;20031;-74
2023/02/27 01:41:22;;;;;;;5.80;2.10;;;;;;;-1.80;100.00;102766.28;5224662;28;20020;-74
2023/02/27 01:44:12;;;;;;;4.57;2.17;;;;;;;-1.82;100.00;102761.03;5224885;28;20105;-74
2023/02/27 01:46:42;;;;;;;10.57;1.83;;;;;;;-1.85;100.00;102771.66;5224273;28;20448;-74
2023/02/27 01:49:33;;;;;;;11.27;2.28;;;;;;;-1.89;100.00;102770.00;5224633;28;20139;-74
2023/02/27 01:52:07;;;;;;;7.97;1.50;;;;;;;-1.92;100.00;102772.69;5207119;28;20476;-74
2023/02/27 01:54:40;;;;;;;4.13;1.30;;;;;;;-1.94;100.00;102765.75;5224441;28;20450;-74
2023/02/27 01:57:11;;;;;;;6.22;1.40;;;;;;;-1.95;100.00;102771.94;5224086;28;20271;-73
2023/02/27 01:59:42;;;;;;;7.55;2.03;;;;;;;-2.01;100.00;102775.56;5223843;28;20100;-73
2023/02/27 02:02:20;;;;;;;8.25;1.83;;;;;;;-2.09;100.00;102773.13;5206840;28;20021;-73
2023/02/27 02:04:53;;;;;;;5.88;1.60;;;;;;;-2.11;100.00;102772.31;5224441;28;20032;-73
2023/02/27 02:07:28;;;;;;;8.52;1.95;;;;;;;-2.13;100.00;102774.09;5224339;28;20032;-73
2023/02/27 02:09:59;;;;;;;9.80;2.00;;;;;;;-2.14;100.00;102776.78;5224101;28;20016;-73
2023/02/27 02:12:33;;;;;;;7.72;2.10;;;;;;;-2.17;100.00;102769.81;5224242;28;20036;-73
2023/02/27 02:15:05;;;;;;;10.50;2.03;;;;;;;-2.17;100.00;102774.22;5224299;28;20020;-73
2023/02/27 02:17:38;;;;;;;6.13;1.75;;;;;;;-2.19;100.00;102774.25;5223944;28;20506;-73
2023/02/27 02:20:34;;;;;;;8.40;2.15;;;;;;;-2.23;100.00;102769.09;5223929;28;20608;-73
2023/02/27 02:23:47;;;;;;;7.32;1.90;;;;;;;-2.26;100.00;102775.31;5211965;28;20037;-73
2023/02/27 02:26:42;;;;;;;7.35;1.80;;;;;;;-2.30;100.00;102778.06;5223352;28;20031;-73
2023/02/27 02:29:44;;;;;;;9.27;2.42;;;;;;;-2.33;100.00;102771.09;5224191;28;20120;-73
2023/02/27 02:32:47;;;;;;;8.35;1.92;;;;;;;-2.37;100.00;102772.91;5206423;28;20029;-73
2023/02/27 02:35:26;;;;;;;3.72;2.00;;;;;;;-2.39;100.00;102772.09;5223996;28;20032;-73
2023/02/27 02:38:05;;;;;;;6.72;1.98;;;;;;;-2.41;100.00;102770.41;5223830;28;20029;-73
2023/02/27 02:40:54;;;;;;;7.55;2.40;;;;;;;-2.42;100.00;102771.31;5224088;28;20031;-73
2023/02/27 02:43:34;;;;;;;8.60;1.88;;;;;;;-2.44;100.00;102781.00;5206152;28;20031;-73
2023/02/27 02:46:21;;;;;;;8.10;2.50;;;;;;;-2.46;100.00;102778.41;5224012;28;20036;-73
2023/02/27 02:48:58;;;;;;;7.88;2.28;;;;;;;-2.47;100.00;102781.06;5224006;28;20032;-73
2023/02/27 02:51:58;;;;;;;6.38;2.10;;;;;;;-2.53;100.00;102779.44;5223360;28;20029;-73
2023/02/27 02:55:00;;;;;;;8.68;1.70;;;;;;;-2.53;100.00;102782.06;5224105;28;20466;-73
2023/02/27 02:57:41;;;;;;;7.82;1.88;;;;;;;-2.55;100.00;102777.75;5213387;28;20039;-73
2023/02/27 03:00:33;;;;;;;8.25;2.17;;;;;;;-2.57;100.00;102779.53;5222848;28;20471;-73
2023/02/27 03:03:13;;;;;;;12.18;2.40;;;;;;;-2.57;100.00;102775.16;5221116;28;20468;-73
2023/02/27 03:05:50;;;;;;;7.70;2.00;;;;;;;-2.58;100.00;102783.94;5214795;28;20032;-73
2023/02/27 03:08:30;;;;;;;8.35;2.28;;;;;;;-2.59;100.00;102782.22;5223359;28;20032;-73
2023/02/27 03:11:03;;;;;;;6.90;3.22;;;;;;;-2.62;100.00;102779.63;5223646;28;20049;-73
2023/02/27 03:13:45;;;;;;;13.48;2.03;;;;;;;-2.64;100.00;102789.34;5224108;28;20033;-73
2023/02/27 03:16:40;;;;;;;4.55;2.08;;;;;;;-2.65;100.00;102792.88;5224086;28;20059;-73
2023/02/27 03:19:16;;;;;;;7.35;2.08;;;;;;;-2.65;100.00;102787.63;5205978;28;20025;-73
2023/02/27 03:22:01;;;;;;;9.40;2.20;;;;;;;-2.66;100.00;102789.38;5224078;28;20116;-73
2023/02/27 03:24:44;;;;;;;8.75;2.33;;;;;;;-2.68;100.00;102783.28;5223512;28;20020;-73
2023/02/27 03:27:20;;;;;;;5.70;1.90;;;;;;;-2.67;100.00;102794.66;5223246;28;20086;-73
2023/02/27 03:30:14;;;;;;;5.75;2.00;;;;;;;-2.70;100.00;102790.34;5224031;28;20032;-73
2023/02/27 03:33:20;;;;;;;5.53;2.47;;;;;;;-2.70;100.00;102794.72;5223584;28;20033;-73
2023/02/27 03:36:02;;;;;;;4.90;2.10;;;;;;;-2.72;100.00;102796.50;5223391;28;20021;-73
2023/02/27 03:38:49;;;;;;;7.47;2.15;;;;;;;-2.76;100.00;102797.47;5223066;28;20025;-73
2023/02/27 03:41:29;;;;;;;8.43;2.40;;;;;;;-2.77;100.00;102793.13;5223264;28;20448;-73
2023/02/27 03:44:09;;;;;;;6.07;1.65;;;;;;;-2.78;100.00;102788.75;5205726;28;20025;-73
2023/02/27 03:46:41;;;;;;;8.18;2.30;;;;;;;-2.80;100.00;102795.84;5223072;28;20025;-73
2023/02/27 03:49:11;;;;;;;6.47;2.10;;;;;;;-2.83;100.00;102794.13;5223655;28;20389;-73
2023/02/27 03:51:42;;;;;;;5.25;2.15;;;;;;;-2.86;100.00;102799.47;5188834;28;20049;-74
2023/02/27 03:54:15;;;;;;;8.75;2.72;;;;;;;-2.88;100.00;102798.59;5223739;28;20063;-73
2023/02/27 03:56:51;;;;;;;13.85;2.25;;;;;;;-2.90;100.00;102800.41;5229205;28;20044;-73
2023/02/27 03:59:23;;;;;;;4.95;2.17;;;;;;;-2.92;100.00;102804.81;5210699;28;20029;-73
2023/02/27 04:01:56;;;;;;;10.10;2.58;;;;;;;-2.93;100.00;102808.34;5226844;28;20486;-73
2023/02/27 04:04:30;;;;;;;9.52;2.25;;;;;;;-2.92;100.00;102810.06;5205684;28;20137;-73
2023/02/27 04:07:23;;;;;;;9.25;2.40;;;;;;;-2.91;100.00;102809.19;5227251;28;20493;-73
2023/02/27 04:10:31;;;;;;;10.10;2.63;;;;;;;-2.93;100.00;102808.34;5209248;28;20028;-73
2023/02/27 04:13:10;;;;;;;6.47;2.20;;;;;;;-2.91;100.00;102806.56;5226859;28;20484;-73
2023/02/27 04:15:50;;;;;;;7.05;2.20;;;;;;;-2.90;100.00;102811.78;5227029;28;20028;-73
2023/02/27 04:18:56;;;;;;;13.45;3.42;;;;;;;-2.92;100.00;102810.94;5214510;28;20028;-73
2023/02/27 04:21:42;;;;;;;9.73;3.70;;;;;;;-2.91;100.00;102824.94;5213676;28;20115;-73
2023/02/27 04:24:14;;;;;;;11.60;2.28;;;;;;;-2.93;100.00;102814.47;5226439;28;20067;-73
2023/02/27 04:26:52;;;;;;;8.45;2.65;;;;;;;-2.96;100.00;102821.53;5225965;28;20462;-73
2023/02/27 04:29:36;;;;;;;12.30;2.30;;;;;;;-2.97;100.00;102820.66;5226183;28;20078;-73
2023/02/27 04:32:44;;;;;;;6.23;2.43;;;;;;;-3.02;100.00;102817.25;5226607;28;20509;-73
2023/02/27 04:35:24;;;;;;;10.93;2.75;;;;;;;-3.03;100.00;102818.16;5226273;28;20063;-73
2023/02/27 04:38:02;;;;;;;10.55;2.55;;;;;;;-3.06;100.00;102825.22;5208887;28;20024;-73
2023/02/27 04:40:41;;;;;;;14.20;3.22;;;;;;;-3.09;100.00;102818.28;5208464;28;20489;-73
2023/02/27 04:43:14;;;;;;;12.15;2.55;;;;;;;-3.10;100.00;102820.97;5226387;28;20112;-73
2023/02/27 04:45:47;;;;;;;12.50;3.10;;;;;;;-3.11;100.00;102825.34;5226301;28;20040;-73
2023/02/27 04:48:35;;;;;;;6.55;2.72;;;;;;;-3.12;100.00;102821.84;5207393;28;20025;-73
2023/02/27 04:51:14;;;;;;;15.20;3.17;;;;;;;-3.12;100.00;102828.84;5226495;28;20470;-73
2023/02/27 04:54:07;;;;;;;9.65;2.95;;;;;;;-3.13;100.00;102827.13;5225846;28;20021;-73
2023/02/27 04:56:44;;;;;;;15.40;3.38;;;;;;;-3.14;100.00;102838.53;5225010;28;20061;-73
2023/02/27 04:59:19;;;;;;;10.40;3.20;;;;;;;-3.18;100.00;102844.72;5225673;28;20039;-73
2023/02/27 05:01:58;;;;;;;10.45;2.75;;;;;;;-3.23;100.00;102844.81;5195079;28;20032;-73
2023/02/27 05:04:31;;;;;;;7.82;3.22;;;;;;;-3.26;100.00;102844.03;5225392;28;20028;-73
2023/02/27 05:07:08;;;;;;;8.40;3.00;;;;;;;-3.31;100.00;102846.72;5223892;28;20033;-73
2023/02/27 05:09:59;;;;;;;10.10;3.30;;;;;;;-3.33;100.00;102845.03;5225289;28;20020;-73
2023/02/27 05:12:49;;;;;;;13.13;4.00;;;;;;;-3.30;100.00;102847.59;5225830;28;20082;-73
2023/02/27 05:15:23;;;;;;;6.50;2.97;;;;;;;-3.32;100.00;102839.72;5214534;28;20020;-73
2023/02/27 05:18:02;;;;;;;11.35;3.50;;;;;;;-3.33;100.00;102838.00;5225060;28;20025;-73
2023/02/27 05:20:41;;;;;;;11.35;3.97;;;;;;;-3.31;100.00;102837.97;5225521;28;20071;-73
2023/02/27 05:23:20;;;;;;;15.73;3.38;;;;;;;-3.31;100.00;102844.09;5225323;28;20032;-73
2023/02/27 05:26:07;;;;;;;8.40;3.20;;;;;;;-3.27;100.00;102842.28;5224806;28;20032;-73
2023/02/27 05:28:57;;;;;;;17.52;3.20;;;;;;;-3.24;100.00;102842.22;5225077;28;20095;-73
2023/02/27 05:31:33;;;;;;;10.18;3.08;;;;;;;-3.24;100.00;102842.22;5212606;28;20029;-73
2023/02/27 05:34:41;;;;;;;7.75;2.78;;;;;;;-3.29;100.00;102841.44;5224891;28;20036;-73
2023/02/27 05:37:19;;;;;;;10.20;2.60;;;;;;;-3.34;100.00;102849.41;5224618;28;20099;-75
2023/02/27 05:39:51;;;;;;;10.57;2.58;;;;;;;-3.39;100.00;102852.09;5207194;28;20392;-75
2023/02/27 05:42:26;;;;;;;6.95;3.10;;;;;;;-3.46;100.00;102844.41;5224424;28;20052;-75
2023/02/27 05:45:06;;;;;;;11.13;2.97;;;;;;;-3.51;100.00;102854.97;5224853;28;20024;-73
2023/02/27 05:47:43;;;;;;;9.57;3.70;;;;;;;-3.50;100.00;102850.59;5212638;28;20489;-73
2023/02/27 05:50:20;;;;;;;9.82;3.42;;;;;;;-3.49;100.00;102860.19;5224705;28;20095;-73
2023/02/27 05:52:54;;;;;;;12.65;3.70;;;;;;;-3.49;100.00;102857.56;5224454;28;20025;-73
2023/02/27 05:55:32;;;;;;;12.25;3.90;;;;;;;-3.47;100.00;102858.38;5224514;28;20099;-73
2023/02/27 05:58:11;;;;;;;10.02;3.38;;;;;;;-3.49;100.00;102863.66;5223986;28;20078;-73
2023/02/27 06:00:48;;;;;;;14.73;3.65;;;;;;;-3.48;100.00;102856.66;5224588;28;20029;-73
2023/02/27 06:03:19;;;;;;;10.45;2.97;;;;;;;-3.49;100.00;102858.41;5207106;28;20033;-73
2023/02/27 06:05:52;;;;;;;11.90;3.78;;;;;;;-3.47;100.00;102863.63;5224442;28;20021;-73
2023/02/27 06:08:23;;;;;;;12.52;3.33;;;;;;;-3.47;100.00;102869.75;5224163;28;20032;-73
2023/02/27 06:10:54;;;;;;;12.32;3.58;;;;;;;-3.46;100.00;102875.88;5224200;28;20047;-73
2023/02/27 06:13:25;;;;;;;11.05;3.90;;;;;;;-3.47;100.00;102872.38;5224267;28;20025;-73
2023/02/27 06:15:55;;;;;;;12.07;4.13;;;;;;;-3.47;100.00;102869.75;5224196;28;20435;-73
2023/02/27 06:18:26;;;;;;;13.48;4.00;;;;;;;-3.48;100.00;102865.38;5223626;28;20044;-73
2023/02/27 06:20:56;;;;;;;14.82;4.70;;;;;;;-3.46;100.00;102876.75;5224357;28;20025;-73
2023/02/27 06:23:27;;;;;;;7.68;4.07;;;;;;;-3.45;100.00;102872.34;5224187;28;20044;-73
2023/02/27 06:25:57;;;;;;;10.52;4.25;;;;;;;-3.43;100.00;102881.91;5223698;28;20036;-73
2023/02/27 06:28:28;;;;;;;15.65;3.88;;;;;;;-3.41;100.00;102877.53;5223784;28;20074;-73
2023/02/27 06:30:59;;;;;;;9.75;3.88;;;;;;;-3.39;100.00;102883.59;5224321;28;20053;-73
2023/02/27 06:33:30;;;;;;;14.05;3.67;;;;;;;-3.39;100.00;102880.97;5224462;28;20439;-73
2023/02/27 06:36:00;;;;;;;9.02;3.42;;;;;;;-3.39;100.00;102894.09;5210870;28;20021;-73
2023/02/27 06:38:31;;;;;;;13.80;3.67;;;;;;;-3.40;100.00;102895.00;5223225;28;20032;-73
2023/02/27 06:41:03;;;;;;;8.73;3.80;;;;;;;-3.37;100.00;102907.19;5224070;28;20025;-73
2023/02/27 06:43:35;;;;;;;9.02;3.95;;;;;;;-3.35;100.00;102894.94;5206302;28;20025;-76
2023/02/27 06:46:05;;;;;;;13.68;4.70;;;;;;;-3.32;100.00;102889.59;5223997;28;20033;-75
2023/02/27 06:48:36;;;;;;;18.13;4.45;;;;;;;-3.28;100.00;102903.53;5223685;28;20047;-75
2023/02/27 06:51:07;;;;;;;20.67;4.80;;;;;;;-3.22;100.00;102906.06;5225445;28;20024;-76
2023/02/27 06:53:37;;;;;;;15.55;4.43;;;;;;;-3.15;100.00;102899.81;5226727;28;20048;-76
2023/02/27 06:56:08;;;;;;;8.48;4.00;;;;;;;-3.06;100.00;102909.25;5208125;28;20111;-76
2023/02/27 06:58:38;;;;;;;14.52;5.25;;;;;;;-2.95;100.00;102920.47;5224174;28;20029;-75
2023/02/27 07:01:09;;;;;;;11.68;4.40;;;;;;;-2.84;100.00;102907.13;5224486;28;20029;-76
2023/02/27 07:03:39;;;;;;;11.43;4.57;;;;;;;-2.74;100.00;102913.91;5223764;28;20044;-76
2023/02/27 07:06:11;;;;;;;8.45;3.47;;;;;;;-2.66;100.00;102919.88;5224052;28;20094;-76
2023/02/27 07:08:41;;;;;;;12.55;4.65;;;;;;;-2.57;100.00;102918.81;5223924;28;20437;-73
2023/02/27 07:11:12;;;;;;;14.70;4.25;;;;;;;-2.44;100.00;102936.09;5223468;28;20115;-76
2023/02/27 07:13:43;;;;;;;10.90;4.45;;;;;;;-2.31;100.00;102934.91;5224712;28;20436;-74
2023/02/27 07:16:13;;;;;;;13.40;4.90;;;;;;;-2.17;100.00;102938.13;5223296;28;20051;-74
2023/02/27 07:18:44;;;;;;;20.48;5.20;;;;;;;-1.98;100.00;102933.31;5205753;28;20025;-74
2023/02/27 07:21:14;;;;;;;18.33;4.40;;;;;;;-1.67;100.00;102944.00;5224042;28;20692;-74
2023/02/27 07:23:45;;;;;;;19.85;5.13;;;;;;;-1.32;100.00;102953.66;5206137;28;20036;-74
2023/02/27 07:26:15;;;;;;;12.20;4.57;;;;;;;-0.88;100.00;102959.56;5223244;28;20021;-74
2023/02/27 07:28:46;;;;;;;13.82;4.53;;;;;;;-0.45;100.00;102961.03;5222885;28;20401;-74
2023/02/27 07:31:16;;;;;;;11.18;4.20;;;;;;;-0.02;100.00;102957.97;5227615;28;20036;-74
2023/02/27 07:33:47;;;;;;;15.40;4.25;;;;;;;0.21;100.00;102959.91;5227525;28;20482;-74
2023/02/27 07:36:17;;;;;;;6.95;3.42;;;;;;;0.34;100.00;102963.00;5209894;28;20454;-74
2023/02/27 07:38:48;;;;;;;13.48;3.72;;;;;;;0.38;100.00;102963.78;5227157;28;20469;-74
2023/02/27 07:41:19;;;;;;;14.95;5.32;;;;;;;0.46;100.00;102967.06;5209563;28;20539;-74
2023/02/27 07:43:49;;;;;;;15.07;4.00;;;;;;;0.58;100.00;102961.38;5227309;28;20024;-74
2023/02/27 07:46:22;;;;;;;13.27;3.47;;;;;;;0.68;100.00;102962.78;5227413;28;20477;-75
2023/02/27 07:48:54;;;;;;;8.82;3.72;;;;;;;0.85;100.00;102966.63;5227197;28;20025;-74
2023/02/27 07:51:24;;;;;;;9.60;3.42;;;;;;;1.10;100.00;102967.53;5227014;28;20051;-74
2023/02/27 07:53:57;;;;;;;9.88;3.30;;;;;;;1.57;100.00;102969.41;5229051;28;20057;-74
2023/02/27 07:56:27;;;;;;;12.90;3.63;;;;;;;1.91;100.00;102964.59;5209730;28;20033;-74
2023/02/27 07:58:58;;;;;;;6.88;3.10;;;;;;;2.25;100.00;102964.13;5227596;28;20154;-74
2023/02/27 08:01:28;;;;;;;8.15;3.53;;;;;;;2.59;100.00;102974.22;5227169;28;20392;-74
2023/02/27 08:03:59;;;;;;;9.07;3.63;;;;;;;2.63;100.00;102969.66;5226822;28;20028;-74
2023/02/27 08:06:29;;;;;;;8.63;3.75;;;;;;;2.95;100.00;102970.97;5209013;28;20033;-74
2023/02/27 08:09:00;;;;;;;12.32;4.18;;;;;;;3.08;100.00;102966.00;5227467;28;20033;-75
2023/02/27 08:11:30;;;;;;;9.98;3.95;;;;;;;3.03;100.00;102974.16;5226793;28;20491;-75
2023/02/27 08:14:01;;;;;;;9.02;3.50;;;;;;;3.29;100.00;102972.16;5227458;28;20028;-75
2023/02/27 08:16:31;;;;;;;10.50;3.03;;;;;;;3.53;100.00;102976.38;5225976;28;20539;-75
2023/02/27 08:19:02;;;;;;;10.23;3.80;;;;;;;3.82;100.00;102971.56;5226782;28;20406;-75
2023/02/27 08:21:32;;;;;;;9.10;3.70;;;;;;;4.01;100.00;102968.88;5208932;28;20074;-75
2023/02/27 08:24:03;;;;;;;8.63;3.75;;;;;;;4.11;100.00;102967.50;5226698;28;20528;-75
2023/02/27 08:26:33;;;;;;;10.25;4.22;;;;;;;4.36;100.00;102969.84;5226167;28;20173;-75
2023/02/27 08:29:04;;;;;;;8.88;3.83;;;;;;;4.54;100.00;102966.31;5226023;28;20671;-75
2023/02/27 08:31:34;;;;;;;8.95;3.72;;;;;;;4.86;100.00;102964.69;5226431;28;20028;-75
2023/02/27 08:34:05;;;;;;;6.63;3.53;;;;;;;4.93;100.00;102963.47;5208840;28;20523;-75
2023/02/27 08:36:35;;;;;;;7.70;3.45;;;;;;;5.15;100.00;102967.69;5226005;28;20017;-75
2023/02/27 08:39:07;;;;;;;10.90;3.38;;;;;;;5.36;100.00;102969.22;5226305;28;20027;-75
2023/02/27 08:41:38;;;;;;;7.38;3.72;;;;;;;5.39;100.00;102968.19;5225615;28;20040;-75
2023/02/27 08:44:10;;;;;;;10.23;4.78;;;;;;;5.31;100.00;102970.41;5226168;28;20432;-75
2023/02/27 08:46:41;;;;;;;9.25;3.70;;;;;;;4.88;100.00;102965.50;5208035;28;20082;-75
2023/02/27 08:49:12;;;;;;;10.48;4.05;;;;;;;5.15;100.00;102965.88;5226025;28;20485;-75
2023/02/27 08:51:42;;;;;;;7.75;3.45;;;;;;;5.33;100.00;102965.88;5225760;28;20048;-75
2023/02/27 08:54:13;;;;;;;12.27;4.50;;;;;;;5.57;100.00;102977.00;5225715;28;20047;-75
2023/02/27 08:56:44;;;;;;;8.73;4.03;;;;;;;5.71;100.00;102977.97;5207836;28;20025;-75
2023/02/27 08:59:15;;;;;;;8.02;3.83;;;;;;;5.89;100.00;102978.81;5225815;28;20477;-75
2023/02/27 09:01:45;;;;;;;11.88;4.00;;;;;;;6.04;100.00;102974.47;5224787;28;20031;-75
2023/02/27 09:04:16;;;;;;;11.02;3.95;;;;;;;6.28;100.00;102979.38;5212692;28;20022;-75
2023/02/27 09:06:46;;;;;;;7.63;3.42;;;;;;;6.41;100.00;102986.56;5224521;28;20387;-75
2023/02/27 09:09:17;;;;;;;13.85;3.90;;;;;;;6.41;100.00;102983.91;5207592;28;20489;-75
2023/02/27 09:11:49;;;;;;;11.82;3.78;;;;;;;6.43;100.00;102984.69;5225433;28;20024;-75
2023/02/27 09:14:20;;;;;;;14.35;4.50;;;;;;;6.48;100.00;102979.97;5225358;28;20024;-75
2023/02/27 09:16:50;;;;;;;12.60;4.18;;;;;;;6.48;100.00;102987.97;5224620;28;20025;-75
2023/02/27 09:19:21;;;;;;;7.18;3.88;;;;;;;6.27;100.00;102977.63;5225281;28;20443;-75
2023/02/27 09:21:51;;;;;;;8.23;3.40;;;;;;;6.63;100.00;102980.03;5207569;28;20025;-75
2023/02/27 09:24:22;;;;;;;9.48;3.20;;;;;;;6.30;100.00;102981.00;5225055;28;20029;-75
2023/02/27 09:26:53;;;;;;;11.48;3.30;;;;;;;6.30;100.00;102980.16;5224895;28;20520;-75
2023/02/27 09:29:26;;;;;;;10.43;3.63;;;;;;;6.40;100.00;102976.88;5224610;28;20103;-75
2023/02/27 09:31:56;;;;;;;7.68;3.28;;;;;;;6.23;100.00;102975.16;5207203;28;20028;-75
2023/02/27 09:34:28;;;;;;;6.63;3.15;;;;;;;6.41;100.00;102980.38;5225376;28;20025;-75
2023/02/27 09:36:59;;;;;;;9.73;3.20;;;;;;;6.69;100.00;102982.34;5224402;28;20028;-75
2023/02/27 09:39:30;;;;;;;6.13;3.35;;;;;;;6.91;100.00;102976.59;5217041;28;20026;-75
2023/02/27 09:42:08;;;;;;;7.03;3.22;;;;;;;6.93;100.00;102977.38;5210355;28;20063;-75
2023/02/27 09:44:43;;;;;;;7.68;2.92;;;;;;;6.98;100.00;102978.84;5206237;28;20032;-75
2023/02/27 09:47:36;;;;;;;7.22;3.25;;;;;;;7.07;100.00;102995.22;5206089;28;20491;-75
2023/02/27 09:50:27;;;;;;;7.93;2.35;;;;;;;6.34;100.00;102981.69;5223508;28;20036;-75
2023/02/27 09:52:58;;;;;;;4.28;1.70;;;;;;;6.45;100.00;102974.78;5223634;28;20560;-75
2023/02/27 09:55:33;;;;;;;6.25;2.78;;;;;;;6.32;100.00;102987.09;5223454;28;20021;-76
2023/02/27 09:58:22;;;;;;;;;;;;;;;6.59;100.00;102989.16;5223776;28;20025;-76
2023/02/27 10:01:14;;;;;;;7.38;2.75;;;;;;;6.35;100.00;102988.75;5223297;28;19958;-75
2023/02/27 10:03:59;;;;;;;5.70;2.40;;;;;;;6.21;100.00;102987.69;5203107;28;20438;-75
2023/02/27 10:06:39;;;;;;;4.10;1.98;;;;;;;6.28;100.00;102982.06;5220308;28;20389;-75
2023/02/27 10:09:33;;;;;;;5.68;2.08;;;;;;;6.23;100.00;102985.81;5223369;28;20402;-75
2023/02/27 10:12:15;;;;;;;6.68;2.63;;;;;;;6.18;100.00;102989.69;5212341;28;20493;-75
2023/02/27 10:14:52;;;;;;;6.78;2.33;;;;;;;6.28;100.00;102988.22;5223245;28;20482;-75
2023/02/27 10:17:29;;;;;;;8.75;2.58;;;;;;;6.28;100.00;102982.06;5204342;28;20029;-76
2023/02/27 10:20:03;;;;;;;10.40;2.40;;;;;;;6.22;100.00;102992.09;5222695;28;20068;-75
2023/02/27 10:22:38;;;;;;;7.03;3.53;;;;;;;6.63;100.00;102982.69;5205315;28;20048;-75
2023/02/27 10:25:14;;;;;;;6.35;2.38;;;;;;;6.74;100.00;102980.28;5222835;28;20075;-75
2023/02/27 10:27:47;;;;;;;11.75;3.92;;;;;;;6.91;100.00;102982.78;5222538;28;20036;-75
2023/02/27 10:30:20;;;;;;;8.90;2.47;;;;;;;7.00;100.00;102987.59;5222744;28;20544;-75
2023/02/27 10:32:56;;;;;;;6.43;2.78;;;;;;;7.13;100.00;102992.19;5205187;28;20045;-75
2023/02/27 10:35:33;;;;;;;6.03;2.15;;;;;;;6.87;100.00;102988.41;5204973;28;20087;-75
2023/02/27 10:38:12;;;;;;;6.35;1.90;;;;;;;6.29;100.00;102981.94;5204486;28;20036;-75
2023/02/27 10:40:43;;;;;;;6.00;2.05;;;;;;;6.49;100.00;102980.81;5204567;28;20025;-75
2023/02/27 10:43:17;;;;;;;6.80;2.10;;;;;;;6.57;100.00;102981.22;5222550;28;20108;-75
2023/02/27 10:45:48;;;;;;;9.13;2.05;;;;;;;6.75;100.00;102982.84;5222525;28;20116;-75
2023/02/27 10:48:19;;;;;;;8.90;2.38;;;;;;;6.44;100.00;102977.56;5204480;28;20537;-75
2023/02/27 10:50:50;;;;;;;5.22;2.03;;;;;;;6.70;100.00;102982.25;5223153;28;20057;-75
2023/02/27 10:53:24;;;;;;;8.40;1.90;;;;;;;6.73;100.00;102986.56;5222561;28;20087;-75
2023/02/27 10:56:00;;;;;;;5.32;1.50;;;;;;;6.30;100.00;102977.47;5222846;28;20055;-75
2023/02/27 10:58:34;;;;;;;2.53;1.40;;;;;;;6.26;100.00;102981.25;5221854;28;20075;-75
2023/02/27 11:01:08;;;;;;;3.15;1.40;;;;;;;6.16;100.00;102980.91;5204082;28;20185;-75
2023/02/27 11:03:41;;;;;;;4.18;1.23;;;;;;;6.08;100.00;102977.84;5202026;28;20061;-75
2023/02/27 11:06:21;;;;;;;3.33;1.50;;;;;;;6.25;100.00;102980.41;5220783;28;20076;-75
2023/02/27 11:09:17;;;;;;;3.80;1.55;;;;;;;5.82;100.00;102981.88;5227107;28;20055;-75
2023/02/27 11:11:49;;;;;;;2.78;1.23;;;;;;;5.71;100.00;102974.47;5226352;28;20028;-75
2023/02/27 11:14:51;;;;;;;4.82;1.25;;;;;;;5.97;100.00;102967.75;5226509;28;20045;-75
2023/02/27 11:17:24;;;;;;;11.63;1.33;;;;;;;5.93;100.00;102976.88;5226076;28;20021;-75
2023/02/27 11:19:56;;;;;;;4.53;1.30;;;;;;;5.85;100.00;102963.91;5226015;28;20076;-75
2023/02/27 11:22:30;;;;;;;3.78;1.42;;;;;;;5.90;100.00;102958.34;5208180;28;20037;-75
2023/02/27 11:25:21;;;;;;;3.30;1.38;;;;;;;6.08;100.00;102952.03;5208774;28;20028;-75
2023/02/27 11:28:12;;;;;;;2.97;1.33;;;;;;;5.97;100.00;102949.97;5209110;28;20029;-75
2023/02/27 11:30:42;;;;;;;4.28;1.45;;;;;;;6.02;100.00;102955.03;5227199;28;20028;-75
2023/02/27 11:33:19;;;;;;;2.83;1.60;;;;;;;5.97;100.00;102947.31;5227544;28;20498;-75
2023/02/27 11:35:52;;;;;;;4.78;1.80;;;;;;;6.08;100.00;102951.19;5227060;28;20029;-75
2023/02/27 11:38:26;;;;;;;6.00;1.40;;;;;;;6.12;100.00;102955.38;5208897;28;20494;-75
2023/02/27 11:41:15;;;;;;;3.58;1.05;;;;;;;6.25;100.00;102948.41;5213705;28;20025;-75
2023/02/27 11:43:49;;;;;;;7.30;1.40;;;;;;;6.43;100.00;102949.19;5226993;28;20017;-75
2023/02/27 11:46:23;;;;;;;2.80;1.02;;;;;;;6.61;100.00;102937.44;5227064;28;20488;-75
2023/02/27 11:49:06;;;;;;;3.95;1.45;;;;;;;6.80;100.00;102926.53;5226519;28;20043;-75
2023/02/27 11:51:55;;;;;;;4.75;1.58;;;;;;;6.60;100.00;102942.88;5226764;28;20100;-75
2023/02/27 11:54:36;;;;;;;3.60;1.23;;;;;;;6.54;100.00;102936.09;5227236;28;20029;-75
2023/02/27 11:57:29;;;;;;;8.88;1.65;;;;;;;6.72;100.00;102931.47;5208383;28;20036;-75